Valley Cottage, New York
Current Conditions -  °F | °C
As of 2:56 AM on Wednesday 22 Oct 2014 (Local Time) from KHPN Reporting Station
Broken Clouds Broken Clouds  
Wind Chill: 56°   Ceiling: 4000
Heat Index: 56°   Visibility: 10mi
Dew Point: 51°   Wind: 7mph
Humidity: 84%   Direction: NA
Pressure: 29.89"   Gusts: NA
Location:  41.11°N, 73.96°W
Report Text: KHPN 220656Z VRB06KT 10SM SCT020 BKN040 13/11 A2989 RMK AO2 SLP120 T01330106
Loading
Personal Weather Stations






























Interactive Weather Map
Tropical Storm Tracking
New forecast layout! Learn more

10-Day Weather Forecast

Advertisements
Track Severe Weather on mobile